sensor_id;sensor_type;location;lat;lon;timestamp;P1;durP1;ratioP1;P2;durP2;ratioP2
43823;SDS011;29470;53.550;9.926;2023-05-10T00:00:34;5.32;;;3.10;;
43823;SDS011;29470;53.550;9.926;2023-05-10T00:05:36;7.20;;;3.50;;
43823;SDS011;29470;53.550;9.926;2023-05-10T00:10:41;11.55;;;3.53;;
43823;SDS011;29470;53.550;9.926;2023-05-10T00:15:43;7.13;;;3.70;;
43823;SDS011;29470;53.550;9.926;2023-05-10T00:20:46;7.18;;;3.80;;
43823;SDS011;29470;53.550;9.926;2023-05-10T00:25:51;4.65;;;3.22;;
43823;SDS011;29470;53.550;9.926;2023-05-10T00:30:54;6.40;;;3.83;;
43823;SDS011;29470;53.550;9.926;2023-05-10T00:35:57;4.70;;;3.58;;
43823;SDS011;29470;53.550;9.926;2023-05-10T00:41:01;5.75;;;3.75;;
43823;SDS011;29470;53.550;9.926;2023-05-10T00:46:08;5.50;;;3.38;;
43823;SDS011;29470;53.550;9.926;2023-05-10T00:51:12;5.95;;;3.70;;
43823;SDS011;29470;53.550;9.926;2023-05-10T00:56:16;5.93;;;3.40;;
43823;SDS011;29470;53.550;9.926;2023-05-10T01:01:21;7.18;;;3.88;;
43823;SDS011;29470;53.550;9.926;2023-05-10T01:06:25;6.70;;;3.90;;
43823;SDS011;29470;53.550;9.926;2023-05-10T01:11:30;8.07;;;4.20;;
43823;SDS011;29470;53.550;9.926;2023-05-10T01:16:37;5.47;;;3.60;;
43823;SDS011;29470;53.550;9.926;2023-05-10T01:21:45;6.55;;;3.90;;
43823;SDS011;29470;53.550;9.926;2023-05-10T01:32:30;5.07;;;3.70;;
43823;SDS011;29470;53.550;9.926;2023-05-10T01:37:40;5.53;;;3.80;;
43823;SDS011;29470;53.550;9.926;2023-05-10T01:42:48;6.57;;;3.80;;
43823;SDS011;29470;53.550;9.926;2023-05-10T01:47:57;6.63;;;4.32;;
43823;SDS011;29470;53.550;9.926;2023-05-10T01:53:07;6.43;;;3.80;;
43823;SDS011;29470;53.550;9.926;2023-05-10T01:58:13;7.45;;;3.85;;
43823;SDS011;29470;53.550;9.926;2023-05-10T02:03:19;6.53;;;3.75;;
43823;SDS011;29470;53.550;9.926;2023-05-10T02:08:24;9.27;;;3.90;;
43823;SDS011;29470;53.550;9.926;2023-05-10T02:13:28;8.65;;;4.30;;
43823;SDS011;29470;53.550;9.926;2023-05-10T02:18:35;6.10;;;4.28;;
43823;SDS011;29470;53.550;9.926;2023-05-10T02:23:38;6.28;;;4.60;;
43823;SDS011;29470;53.550;9.926;2023-05-10T02:28:42;8.32;;;4.30;;
43823;SDS011;29470;53.550;9.926;2023-05-10T02:33:47;8.05;;;4.35;;
43823;SDS011;29470;53.550;9.926;2023-05-10T02:38:52;7.38;;;4.28;;
43823;SDS011;29470;53.550;9.926;2023-05-10T02:43:57;7.40;;;4.15;;
43823;SDS011;29470;53.550;9.926;2023-05-10T02:49:05;5.80;;;4.00;;
43823;SDS011;29470;53.550;9.926;2023-05-10T02:54:09;6.15;;;4.22;;
43823;SDS011;29470;53.550;9.926;2023-05-10T02:59:14;6.07;;;4.40;;
43823;SDS011;29470;53.550;9.926;2023-05-10T03:04:18;6.85;;;4.20;;
43823;SDS011;29470;53.550;9.926;2023-05-10T03:09:23;5.18;;;4.10;;
43823;SDS011;29470;53.550;9.926;2023-05-10T03:14:30;8.32;;;4.63;;
43823;SDS011;29470;53.550;9.926;2023-05-10T03:19:47;6.88;;;4.10;;
43823;SDS011;29470;53.550;9.926;2023-05-10T03:24:56;7.13;;;4.50;;
43823;SDS011;29470;53.550;9.926;2023-05-10T03:30:03;5.57;;;4.00;;
43823;SDS011;29470;53.550;9.926;2023-05-10T03:35:11;6.03;;;4.40;;
43823;SDS011;29470;53.550;9.926;2023-05-10T03:40:15;6.53;;;4.28;;
43823;SDS011;29470;53.550;9.926;2023-05-10T03:45:19;6.28;;;4.35;;
43823;SDS011;29470;53.550;9.926;2023-05-10T03:50:23;5.68;;;4.20;;
43823;SDS011;29470;53.550;9.926;2023-05-10T03:55:27;7.07;;;3.97;;
43823;SDS011;29470;53.550;9.926;2023-05-10T04:00:31;7.85;;;5.10;;
43823;SDS011;29470;53.550;9.926;2023-05-10T04:05:36;6.13;;;4.28;;
43823;SDS011;29470;53.550;9.926;2023-05-10T04:10:39;5.85;;;4.13;;
43823;SDS011;29470;53.550;9.926;2023-05-10T04:15:41;7.38;;;4.35;;
43823;SDS011;29470;53.550;9.926;2023-05-10T04:20:46;5.75;;;3.90;;
43823;SDS011;29470;53.550;9.926;2023-05-10T04:25:49;5.72;;;4.05;;
43823;SDS011;29470;53.550;9.926;2023-05-10T04:30:52;9.77;;;4.28;;
43823;SDS011;29470;53.550;9.926;2023-05-10T04:35:58;6.80;;;4.53;;
43823;SDS011;29470;53.550;9.926;2023-05-10T04:41:04;8.68;;;4.45;;
43823;SDS011;29470;53.550;9.926;2023-05-10T04:46:08;5.88;;;4.20;;
43823;SDS011;29470;53.550;9.926;2023-05-10T04:51:12;6.07;;;4.15;;
43823;SDS011;29470;53.550;9.926;2023-05-10T04:56:15;6.65;;;4.38;;
43823;SDS011;29470;53.550;9.926;2023-05-10T05:01:18;7.72;;;4.50;;
43823;SDS011;29470;53.550;9.926;2023-05-10T05:06:22;7.25;;;4.60;;
43823;SDS011;29470;53.550;9.926;2023-05-10T05:11:26;7.25;;;4.20;;
43823;SDS011;29470;53.550;9.926;2023-05-10T05:16:30;5.30;;;4.10;;
43823;SDS011;29470;53.550;9.926;2023-05-10T05:21:34;8.13;;;3.83;;
43823;SDS011;29470;53.550;9.926;2023-05-10T05:26:37;8.38;;;4.45;;
43823;SDS011;29470;53.550;9.926;2023-05-10T05:31:40;8.43;;;4.50;;
43823;SDS011;29470;53.550;9.926;2023-05-10T05:36:44;6.05;;;4.40;;
43823;SDS011;29470;53.550;9.926;2023-05-10T05:41:47;11.73;;;5.38;;
43823;SDS011;29470;53.550;9.926;2023-05-10T05:46:50;9.05;;;4.28;;
43823;SDS011;29470;53.550;9.926;2023-05-10T05:51:58;10.45;;;4.78;;
43823;SDS011;29470;53.550;9.926;2023-05-10T05:57:01;8.88;;;4.47;;
43823;SDS011;29470;53.550;9.926;2023-05-10T06:02:04;5.97;;;4.25;;
43823;SDS011;29470;53.550;9.926;2023-05-10T06:07:09;7.22;;;4.10;;
43823;SDS011;29470;53.550;9.926;2023-05-10T06:12:11;6.63;;;4.53;;
43823;SDS011;29470;53.550;9.926;2023-05-10T06:17:14;6.63;;;4.30;;
43823;SDS011;29470;53.550;9.926;2023-05-10T06:22:19;6.82;;;4.20;;
43823;SDS011;29470;53.550;9.926;2023-05-10T06:27:23;6.32;;;3.92;;
43823;SDS011;29470;53.550;9.926;2023-05-10T06:32:27;7.15;;;4.03;;
43823;SDS011;29470;53.550;9.926;2023-05-10T06:37:31;6.97;;;4.55;;
43823;SDS011;29470;53.550;9.926;2023-05-10T06:42:34;7.15;;;4.35;;
43823;SDS011;29470;53.550;9.926;2023-05-10T06:47:37;6.00;;;3.95;;
43823;SDS011;29470;53.550;9.926;2023-05-10T06:52:41;8.35;;;5.03;;
43823;SDS011;29470;53.550;9.926;2023-05-10T06:57:44;6.75;;;4.30;;
43823;SDS011;29470;53.550;9.926;2023-05-10T07:02:47;8.38;;;4.65;;
43823;SDS011;29470;53.550;9.926;2023-05-10T07:07:51;7.13;;;4.57;;
43823;SDS011;29470;53.550;9.926;2023-05-10T07:12:54;12.57;;;4.50;;
43823;SDS011;29470;53.550;9.926;2023-05-10T07:17:57;5.90;;;4.22;;
43823;SDS011;29470;53.550;9.926;2023-05-10T07:23:02;7.90;;;4.00;;
43823;SDS011;29470;53.550;9.926;2023-05-10T07:28:04;6.57;;;4.47;;
43823;SDS011;29470;53.550;9.926;2023-05-10T07:33:07;7.00;;;4.05;;
43823;SDS011;29470;53.550;9.926;2023-05-10T07:38:13;8.20;;;4.07;;
43823;SDS011;29470;53.550;9.926;2023-05-10T07:43:16;6.57;;;4.22;;
43823;SDS011;29470;53.550;9.926;2023-05-10T07:48:19;6.75;;;4.10;;
43823;SDS011;29470;53.550;9.926;2023-05-10T07:53:23;5.80;;;4.15;;
43823;SDS011;29470;53.550;9.926;2023-05-10T07:58:27;8.15;;;4.53;;
43823;SDS011;29470;53.550;9.926;2023-05-10T08:03:30;6.65;;;4.10;;
43823;SDS011;29470;53.550;9.926;2023-05-10T08:08:34;7.20;;;4.03;;
43823;SDS011;29470;53.550;9.926;2023-05-10T08:13:37;8.93;;;4.25;;
43823;SDS011;29470;53.550;9.926;2023-05-10T08:18:40;7.43;;;4.40;;
43823;SDS011;29470;53.550;9.926;2023-05-10T08:23:44;7.28;;;4.05;;
43823;SDS011;29470;53.550;9.926;2023-05-10T08:28:47;7.75;;;4.32;;
43823;SDS011;29470;53.550;9.926;2023-05-10T08:33:50;5.82;;;4.47;;
43823;SDS011;29470;53.550;9.926;2023-05-10T08:38:55;8.02;;;4.43;;
43823;SDS011;29470;53.550;9.926;2023-05-10T08:43:58;6.93;;;4.60;;
43823;SDS011;29470;53.550;9.926;2023-05-10T08:49:02;5.88;;;4.20;;
43823;SDS011;29470;53.550;9.926;2023-05-10T08:54:08;10.50;;;4.82;;
43823;SDS011;29470;53.550;9.926;2023-05-10T08:59:11;7.32;;;4.70;;
43823;SDS011;29470;53.550;9.926;2023-05-10T09:04:15;7.72;;;5.20;;
43823;SDS011;29470;53.550;9.926;2023-05-10T09:09:20;8.15;;;5.55;;
43823;SDS011;29470;53.550;9.926;2023-05-10T09:14:24;8.77;;;5.28;;
43823;SDS011;29470;53.550;9.926;2023-05-10T09:19:27;10.23;;;5.25;;
43823;SDS011;29470;53.550;9.926;2023-05-10T09:24:31;9.90;;;5.18;;
43823;SDS011;29470;53.550;9.926;2023-05-10T09:29:41;8.73;;;5.15;;
43823;SDS011;29470;53.550;9.926;2023-05-10T09:34:45;8.98;;;5.72;;
43823;SDS011;29470;53.550;9.926;2023-05-10T09:39:53;6.43;;;4.97;;
43823;SDS011;29470;53.550;9.926;2023-05-10T09:44:59;9.95;;;5.88;;
43823;SDS011;29470;53.550;9.926;2023-05-10T09:50:03;8.35;;;6.00;;
43823;SDS011;29470;53.550;9.926;2023-05-10T09:55:08;9.75;;;5.70;;
43823;SDS011;29470;53.550;9.926;2023-05-10T10:00:15;11.00;;;6.97;;
43823;SDS011;29470;53.550;9.926;2023-05-10T10:05:21;8.43;;;5.93;;
43823;SDS011;29470;53.550;9.926;2023-05-10T10:10:32;7.75;;;5.82;;
43823;SDS011;29470;53.550;9.926;2023-05-10T10:15:36;9.15;;;5.80;;
43823;SDS011;29470;53.550;9.926;2023-05-10T10:20:39;8.18;;;6.75;;
43823;SDS011;29470;53.550;9.926;2023-05-10T10:25:43;9.13;;;6.55;;
43823;SDS011;29470;53.550;9.926;2023-05-10T10:30:49;11.05;;;7.28;;
43823;SDS011;29470;53.550;9.926;2023-05-10T10:35:58;9.45;;;6.70;;
43823;SDS011;29470;53.550;9.926;2023-05-10T10:41:07;10.90;;;6.90;;
43823;SDS011;29470;53.550;9.926;2023-05-10T10:46:12;10.80;;;7.55;;
43823;SDS011;29470;53.550;9.926;2023-05-10T10:51:15;15.27;;;8.20;;
43823;SDS011;29470;53.550;9.926;2023-05-10T10:56:21;11.23;;;7.70;;
43823;SDS011;29470;53.550;9.926;2023-05-10T11:01:25;9.82;;;7.45;;
43823;SDS011;29470;53.550;9.926;2023-05-10T11:06:35;11.60;;;7.43;;
43823;SDS011;29470;53.550;9.926;2023-05-10T11:11:50;12.07;;;8.27;;
43823;SDS011;29470;53.550;9.926;2023-05-10T11:16:56;10.55;;;8.88;;
43823;SDS011;29470;53.550;9.926;2023-05-10T11:22:12;11.30;;;8.32;;
43823;SDS011;29470;53.550;9.926;2023-05-10T11:27:17;9.32;;;7.85;;
43823;SDS011;29470;53.550;9.926;2023-05-10T11:32:20;11.43;;;8.50;;
43823;SDS011;29470;53.550;9.926;2023-05-10T11:37:27;12.93;;;8.57;;
43823;SDS011;29470;53.550;9.926;2023-05-10T11:42:35;11.02;;;7.88;;
43823;SDS011;29470;53.550;9.926;2023-05-10T11:47:39;10.70;;;8.60;;
43823;SDS011;29470;53.550;9.926;2023-05-10T11:52:44;14.27;;;8.82;;
43823;SDS011;29470;53.550;9.926;2023-05-10T11:57:49;12.40;;;8.63;;
43823;SDS011;29470;53.550;9.926;2023-05-10T12:02:54;13.30;;;8.27;;
43823;SDS011;29470;53.550;9.926;2023-05-10T12:08:10;13.30;;;7.65;;
43823;SDS011;29470;53.550;9.926;2023-05-10T12:13:15;12.85;;;7.50;;
43823;SDS011;29470;53.550;9.926;2023-05-10T12:18:22;11.15;;;8.88;;
43823;SDS011;29470;53.550;9.926;2023-05-10T12:23:26;10.82;;;7.85;;
43823;SDS011;29470;53.550;9.926;2023-05-10T12:28:30;9.68;;;7.32;;
43823;SDS011;29470;53.550;9.926;2023-05-10T12:33:37;11.93;;;6.82;;
43823;SDS011;29470;53.550;9.926;2023-05-10T12:38:43;9.75;;;6.97;;
43823;SDS011;29470;53.550;9.926;2023-05-10T12:43:50;7.50;;;5.13;;
43823;SDS011;29470;53.550;9.926;2023-05-10T12:48:55;9.98;;;7.68;;
43823;SDS011;29470;53.550;9.926;2023-05-10T12:54:09;11.63;;;6.55;;
43823;SDS011;29470;53.550;9.926;2023-05-10T12:59:14;9.13;;;6.05;;
43823;SDS011;29470;53.550;9.926;2023-05-10T13:04:16;8.63;;;6.20;;
43823;SDS011;29470;53.550;9.926;2023-05-10T13:09:19;8.95;;;6.28;;
43823;SDS011;29470;53.550;9.926;2023-05-10T13:14:24;9.90;;;6.60;;
43823;SDS011;29470;53.550;9.926;2023-05-10T13:19:27;8.30;;;6.22;;
43823;SDS011;29470;53.550;9.926;2023-05-10T13:24:30;7.88;;;5.78;;
43823;SDS011;29470;53.550;9.926;2023-05-10T13:29:34;8.88;;;6.47;;
43823;SDS011;29470;53.550;9.926;2023-05-10T13:34:40;10.02;;;7.40;;
43823;SDS011;29470;53.550;9.926;2023-05-10T13:39:43;9.48;;;7.30;;
43823;SDS011;29470;53.550;9.926;2023-05-10T13:44:48;10.05;;;7.40;;
43823;SDS011;29470;53.550;9.926;2023-05-10T13:49:51;9.45;;;7.22;;
43823;SDS011;29470;53.550;9.926;2023-05-10T13:54:54;11.23;;;7.43;;
43823;SDS011;29470;53.550;9.926;2023-05-10T13:59:58;8.25;;;6.60;;
43823;SDS011;29470;53.550;9.926;2023-05-10T14:05:08;10.57;;;6.85;;
43823;SDS011;29470;53.550;9.926;2023-05-10T14:10:11;9.32;;;7.25;;
43823;SDS011;29470;53.550;9.926;2023-05-10T14:15:15;9.32;;;7.22;;
43823;SDS011;29470;53.550;9.926;2023-05-10T14:20:19;8.23;;;6.80;;
43823;SDS011;29470;53.550;9.926;2023-05-10T14:25:21;8.20;;;7.00;;
43823;SDS011;29470;53.550;9.926;2023-05-10T14:30:26;10.48;;;6.93;;
43823;SDS011;29470;53.550;9.926;2023-05-10T14:35:29;8.45;;;6.55;;
43823;SDS011;29470;53.550;9.926;2023-05-10T14:40:33;9.93;;;7.05;;
43823;SDS011;29470;53.550;9.926;2023-05-10T14:45:37;7.40;;;6.20;;
43823;SDS011;29470;53.550;9.926;2023-05-10T14:50:40;9.68;;;7.07;;
43823;SDS011;29470;53.550;9.926;2023-05-10T14:55:43;10.90;;;7.13;;
43823;SDS011;29470;53.550;9.926;2023-05-10T15:00:47;9.02;;;6.68;;
43823;SDS011;29470;53.550;9.926;2023-05-10T15:05:50;9.52;;;6.88;;
43823;SDS011;29470;53.550;9.926;2023-05-10T15:10:54;8.75;;;7.20;;
43823;SDS011;29470;53.550;9.926;2023-05-10T15:15:58;8.27;;;6.28;;
43823;SDS011;29470;53.550;9.926;2023-05-10T15:21:02;9.65;;;7.00;;
43823;SDS011;29470;53.550;9.926;2023-05-10T15:26:05;9.57;;;7.28;;
43823;SDS011;29470;53.550;9.926;2023-05-10T15:31:09;9.30;;;7.13;;
43823;SDS011;29470;53.550;9.926;2023-05-10T15:36:12;10.13;;;6.30;;
43823;SDS011;29470;53.550;9.926;2023-05-10T15:41:15;7.75;;;6.63;;
43823;SDS011;29470;53.550;9.926;2023-05-10T15:46:21;9.32;;;6.68;;
43823;SDS011;29470;53.550;9.926;2023-05-10T15:51:24;9.43;;;7.32;;
43823;SDS011;29470;53.550;9.926;2023-05-10T15:56:27;16.90;;;9.80;;
43823;SDS011;29470;53.550;9.926;2023-05-10T16:01:31;11.27;;;7.40;;
43823;SDS011;29470;53.550;9.926;2023-05-10T16:06:35;23.00;;;15.10;;
43823;SDS011;29470;53.550;9.926;2023-05-10T16:11:38;10.70;;;7.45;;
43823;SDS011;29470;53.550;9.926;2023-05-10T16:16:44;9.60;;;7.40;;
43823;SDS011;29470;53.550;9.926;2023-05-10T16:21:48;11.57;;;7.95;;
43823;SDS011;29470;53.550;9.926;2023-05-10T16:26:51;12.20;;;8.00;;
43823;SDS011;29470;53.550;9.926;2023-05-10T16:31:56;9.18;;;6.63;;
43823;SDS011;29470;53.550;9.926;2023-05-10T16:36:58;9.10;;;5.93;;
43823;SDS011;29470;53.550;9.926;2023-05-10T16:42:01;9.13;;;6.28;;
43823;SDS011;29470;53.550;9.926;2023-05-10T16:47:06;7.93;;;5.32;;
43823;SDS011;29470;53.550;9.926;2023-05-10T16:52:09;13.10;;;8.98;;
43823;SDS011;29470;53.550;9.926;2023-05-10T16:57:12;12.70;;;8.18;;
43823;SDS011;29470;53.550;9.926;2023-05-10T17:02:16;10.00;;;7.22;;
43823;SDS011;29470;53.550;9.926;2023-05-10T17:07:19;9.18;;;6.90;;
43823;SDS011;29470;53.550;9.926;2023-05-10T17:12:26;7.57;;;5.65;;
43823;SDS011;29470;53.550;9.926;2023-05-10T17:17:31;10.23;;;6.97;;
43823;SDS011;29470;53.550;9.926;2023-05-10T17:22:34;6.47;;;4.85;;
43823;SDS011;29470;53.550;9.926;2023-05-10T17:27:37;8.60;;;5.72;;
43823;SDS011;29470;53.550;9.926;2023-05-10T17:32:42;7.40;;;5.13;;
43823;SDS011;29470;53.550;9.926;2023-05-10T17:37:45;9.55;;;5.88;;
43823;SDS011;29470;53.550;9.926;2023-05-10T17:42:48;7.68;;;5.38;;
43823;SDS011;29470;53.550;9.926;2023-05-10T17:47:52;8.23;;;5.70;;
43823;SDS011;29470;53.550;9.926;2023-05-10T17:52:55;10.05;;;6.80;;
43823;SDS011;29470;53.550;9.926;2023-05-10T17:57:58;8.45;;;5.93;;
43823;SDS011;29470;53.550;9.926;2023-05-10T18:03:02;9.30;;;6.10;;
43823;SDS011;29470;53.550;9.926;2023-05-10T18:08:06;9.30;;;6.35;;
43823;SDS011;29470;53.550;9.926;2023-05-10T18:13:10;8.07;;;5.28;;
43823;SDS011;29470;53.550;9.926;2023-05-10T18:18:14;7.68;;;5.07;;
43823;SDS011;29470;53.550;9.926;2023-05-10T18:23:18;10.05;;;6.78;;
43823;SDS011;29470;53.550;9.926;2023-05-10T18:28:21;8.45;;;5.90;;
43823;SDS011;29470;53.550;9.926;2023-05-10T18:33:26;10.57;;;5.95;;
43823;SDS011;29470;53.550;9.926;2023-05-10T18:38:28;9.82;;;5.68;;
43823;SDS011;29470;53.550;9.926;2023-05-10T18:43:32;10.43;;;6.47;;
43823;SDS011;29470;53.550;9.926;2023-05-10T18:48:36;10.15;;;6.95;;
43823;SDS011;29470;53.550;9.926;2023-05-10T18:53:39;10.18;;;6.88;;
43823;SDS011;29470;53.550;9.926;2023-05-10T18:58:42;8.80;;;6.63;;
43823;SDS011;29470;53.550;9.926;2023-05-10T19:03:47;11.27;;;7.00;;
43823;SDS011;29470;53.550;9.926;2023-05-10T19:08:50;9.13;;;6.45;;
43823;SDS011;29470;53.550;9.926;2023-05-10T19:13:53;7.40;;;5.63;;
43823;SDS011;29470;53.550;9.926;2023-05-10T19:18:57;6.28;;;5.03;;
43823;SDS011;29470;53.550;9.926;2023-05-10T19:24:01;12.70;;;5.07;;
43823;SDS011;29470;53.550;9.926;2023-05-10T19:29:04;5.70;;;4.60;;
43823;SDS011;29470;53.550;9.926;2023-05-10T19:34:09;6.63;;;4.38;;
43823;SDS011;29470;53.550;9.926;2023-05-10T19:39:12;7.05;;;4.78;;
43823;SDS011;29470;53.550;9.926;2023-05-10T19:44:15;7.25;;;4.72;;
43823;SDS011;29470;53.550;9.926;2023-05-10T19:49:22;6.80;;;5.30;;
43823;SDS011;29470;53.550;9.926;2023-05-10T19:54:27;7.70;;;5.53;;
43823;SDS011;29470;53.550;9.926;2023-05-10T19:59:30;7.15;;;5.50;;
43823;SDS011;29470;53.550;9.926;2023-05-10T20:04:34;7.22;;;5.80;;
43823;SDS011;29470;53.550;9.926;2023-05-10T20:09:37;7.65;;;5.85;;
43823;SDS011;29470;53.550;9.926;2023-05-10T20:14:40;7.60;;;6.28;;
43823;SDS011;29470;53.550;9.926;2023-05-10T20:19:44;9.07;;;7.13;;
43823;SDS011;29470;53.550;9.926;2023-05-10T20:24:47;9.30;;;7.20;;
43823;SDS011;29470;53.550;9.926;2023-05-10T20:29:50;12.10;;;8.20;;
43823;SDS011;29470;53.550;9.926;2023-05-10T20:34:54;11.57;;;8.13;;
43823;SDS011;29470;53.550;9.926;2023-05-10T20:39:57;11.60;;;8.23;;
43823;SDS011;29470;53.550;9.926;2023-05-10T20:45:00;12.50;;;8.38;;
43823;SDS011;29470;53.550;9.926;2023-05-10T20:50:05;11.98;;;8.63;;
43823;SDS011;29470;53.550;9.926;2023-05-10T20:55:09;11.07;;;8.40;;
43823;SDS011;29470;53.550;9.926;2023-05-10T21:00:12;11.98;;;8.38;;
43823;SDS011;29470;53.550;9.926;2023-05-10T21:05:17;11.68;;;7.88;;
43823;SDS011;29470;53.550;9.926;2023-05-10T21:10:20;14.57;;;8.40;;
43823;SDS011;29470;53.550;9.926;2023-05-10T21:15:23;13.93;;;8.27;;
43823;SDS011;29470;53.550;9.926;2023-05-10T21:20:29;16.70;;;9.38;;
43823;SDS011;29470;53.550;9.926;2023-05-10T21:25:32;16.92;;;10.00;;
43823;SDS011;29470;53.550;9.926;2023-05-10T21:30:35;17.88;;;10.07;;
43823;SDS011;29470;53.550;9.926;2023-05-10T21:35:39;18.08;;;10.38;;
43823;SDS011;29470;53.550;9.926;2023-05-10T21:40:43;21.30;;;10.75;;
43823;SDS011;29470;53.550;9.926;2023-05-10T21:45:46;17.48;;;9.80;;
43823;SDS011;29470;53.550;9.926;2023-05-10T21:50:50;19.25;;;10.20;;
43823;SDS011;29470;53.550;9.926;2023-05-10T21:55:53;17.85;;;9.98;;
43823;SDS011;29470;53.550;9.926;2023-05-10T22:00:56;16.67;;;9.93;;
43823;SDS011;29470;53.550;9.926;2023-05-10T22:06:00;16.88;;;9.60;;
43823;SDS011;29470;53.550;9.926;2023-05-10T22:11:03;17.80;;;9.77;;
43823;SDS011;29470;53.550;9.926;2023-05-10T22:16:06;19.60;;;9.57;;
43823;SDS011;29470;53.550;9.926;2023-05-10T22:21:10;16.98;;;9.43;;
43823;SDS011;29470;53.550;9.926;2023-05-10T22:26:13;16.73;;;8.73;;
43823;SDS011;29470;53.550;9.926;2023-05-10T22:31:16;18.80;;;9.48;;
43823;SDS011;29470;53.550;9.926;2023-05-10T22:36:20;19.25;;;9.20;;
43823;SDS011;29470;53.550;9.926;2023-05-10T22:41:23;21.70;;;10.02;;
43823;SDS011;29470;53.550;9.926;2023-05-10T22:46:26;23.50;;;10.75;;
43823;SDS011;29470;53.550;9.926;2023-05-10T22:51:31;27.50;;;12.88;;
43823;SDS011;29470;53.550;9.926;2023-05-10T22:56:34;25.90;;;11.57;;
43823;SDS011;29470;53.550;9.926;2023-05-10T23:01:36;21.42;;;10.60;;
43823;SDS011;29470;53.550;9.926;2023-05-10T23:06:41;21.13;;;10.48;;
43823;SDS011;29470;53.550;9.926;2023-05-10T23:11:43;23.02;;;11.20;;
43823;SDS011;29470;53.550;9.926;2023-05-10T23:16:46;22.77;;;10.48;;
43823;SDS011;29470;53.550;9.926;2023-05-10T23:21:50;22.88;;;9.95;;
43823;SDS011;29470;53.550;9.926;2023-05-10T23:26:53;25.90;;;12.00;;
43823;SDS011;29470;53.550;9.926;2023-05-10T23:31:56;25.92;;;12.27;;
43823;SDS011;29470;53.550;9.926;2023-05-10T23:37:00;25.33;;;11.38;;
43823;SDS011;29470;53.550;9.926;2023-05-10T23:42:03;24.27;;;11.13;;
43823;SDS011;29470;53.550;9.926;2023-05-10T23:47:06;26.60;;;12.38;;
43823;SDS011;29470;53.550;9.926;2023-05-10T23:52:10;25.73;;;11.38;;
43823;SDS011;29470;53.550;9.926;2023-05-10T23:57:14;30.48;;;13.00;;
